sensor_id;sensor_type;location;lat;lon;timestamp;P1;durP1;ratioP1;P2;durP2;ratioP2
65656;SDS011;57397;50.096;14.404;2022-09-19T00:03:41;0.82;;;0.52;;
65656;SDS011;57397;50.096;14.404;2022-09-19T00:06:09;1.08;;;0.60;;
65656;SDS011;57397;50.096;14.404;2022-09-19T00:08:39;0.60;;;0.47;;
65656;SDS011;57397;50.096;14.404;2022-09-19T00:11:06;1.13;;;0.60;;
65656;SDS011;57397;50.096;14.404;2022-09-19T00:13:33;0.70;;;0.50;;
65656;SDS011;57397;50.096;14.404;2022-09-19T00:15:59;0.70;;;0.55;;
65656;SDS011;57397;50.096;14.404;2022-09-19T00:18:25;1.52;;;0.57;;
65656;SDS011;57397;50.096;14.404;2022-09-19T00:20:55;0.90;;;0.55;;
65656;SDS011;57397;50.096;14.404;2022-09-19T00:23:20;0.60;;;0.40;;
65656;SDS011;57397;50.096;14.404;2022-09-19T00:26:05;0.60;;;0.50;;
65656;SDS011;57397;50.096;14.404;2022-09-19T00:28:33;1.08;;;0.60;;
65656;SDS011;57397;50.096;14.404;2022-09-19T00:30:59;1.27;;;0.50;;
65656;SDS011;57397;50.096;14.404;2022-09-19T00:33:25;1.02;;;0.40;;
65656;SDS011;57397;50.096;14.404;2022-09-19T00:35:53;0.65;;;0.43;;
65656;SDS011;57397;50.096;14.404;2022-09-19T00:38:23;0.80;;;0.47;;
65656;SDS011;57397;50.096;14.404;2022-09-19T00:40:49;1.40;;;0.45;;
65656;SDS011;57397;50.096;14.404;2022-09-19T00:43:16;0.50;;;0.40;;
65656;SDS011;57397;50.096;14.404;2022-09-19T00:45:43;0.90;;;0.40;;
65656;SDS011;57397;50.096;14.404;2022-09-19T00:48:08;0.85;;;0.50;;
65656;SDS011;57397;50.096;14.404;2022-09-19T00:50:35;1.20;;;0.50;;
65656;SDS011;57397;50.096;14.404;2022-09-19T00:53:20;0.70;;;0.50;;
65656;SDS011;57397;50.096;14.404;2022-09-19T00:55:49;1.23;;;0.43;;
65656;SDS011;57397;50.096;14.404;2022-09-19T00:58:33;0.57;;;0.40;;
65656;SDS011;57397;50.096;14.404;2022-09-19T01:01:00;0.90;;;0.50;;
65656;SDS011;57397;50.096;14.404;2022-09-19T01:03:27;0.93;;;0.40;;
65656;SDS011;57397;50.096;14.404;2022-09-19T01:16:51;0.50;;;0.40;;
65656;SDS011;57397;50.096;14.404;2022-09-19T01:22:26;0.40;;;0.30;;
65656;SDS011;57397;50.096;14.404;2022-09-19T01:31:00;0.65;;;0.40;;
65656;SDS011;57397;50.096;14.404;2022-09-19T01:33:45;0.38;;;0.30;;
65656;SDS011;57397;50.096;14.404;2022-09-19T01:36:18;0.60;;;0.32;;
65656;SDS011;57397;50.096;14.404;2022-09-19T01:38:46;0.60;;;0.30;;
65656;SDS011;57397;50.096;14.404;2022-09-19T01:41:14;1.05;;;0.35;;
65656;SDS011;57397;50.096;14.404;2022-09-19T01:43:40;0.57;;;0.50;;
65656;SDS011;57397;50.096;14.404;2022-09-19T01:46:08;0.60;;;0.35;;
65656;SDS011;57397;50.096;14.404;2022-09-19T01:51:38;0.82;;;0.35;;
65656;SDS011;57397;50.096;14.404;2022-09-19T02:00:07;0.52;;;0.40;;
65656;SDS011;57397;50.096;14.404;2022-09-19T02:02:45;0.63;;;0.40;;
65656;SDS011;57397;50.096;14.404;2022-09-19T02:06:16;0.57;;;0.40;;
65656;SDS011;57397;50.096;14.404;2022-09-19T02:11:14;0.63;;;0.40;;
65656;SDS011;57397;50.096;14.404;2022-09-19T02:13:43;0.50;;;0.30;;
65656;SDS011;57397;50.096;14.404;2022-09-19T02:16:12;1.10;;;0.30;;
65656;SDS011;57397;50.096;14.404;2022-09-19T02:21:09;0.80;;;0.40;;
65656;SDS011;57397;50.096;14.404;2022-09-19T02:23:39;0.40;;;0.30;;
65656;SDS011;57397;50.096;14.404;2022-09-19T02:26:12;0.45;;;0.30;;
65656;SDS011;57397;50.096;14.404;2022-09-19T02:28:41;0.55;;;0.40;;
65656;SDS011;57397;50.096;14.404;2022-09-19T02:31:08;0.77;;;0.45;;
65656;SDS011;57397;50.096;14.404;2022-09-19T02:33:34;0.47;;;0.32;;
65656;SDS011;57397;50.096;14.404;2022-09-19T02:38:48;0.20;;;0.20;;
65656;SDS011;57397;50.096;14.404;2022-09-19T02:41:19;0.90;;;0.50;;
65656;SDS011;57397;50.096;14.404;2022-09-19T02:44:16;0.40;;;0.40;;
65656;SDS011;57397;50.096;14.404;2022-09-19T02:47:03;2.38;;;0.55;;
65656;SDS011;57397;50.096;14.404;2022-09-19T02:49:47;0.53;;;0.30;;
65656;SDS011;57397;50.096;14.404;2022-09-19T02:52:17;0.40;;;0.30;;
65656;SDS011;57397;50.096;14.404;2022-09-19T02:54:55;0.52;;;0.38;;
65656;SDS011;57397;50.096;14.404;2022-09-19T02:57:25;1.25;;;0.30;;
65656;SDS011;57397;50.096;14.404;2022-09-19T02:59:52;0.43;;;0.32;;
65656;SDS011;57397;50.096;14.404;2022-09-19T03:02:34;0.30;;;0.30;;
65656;SDS011;57397;50.096;14.404;2022-09-19T03:05:09;0.43;;;0.22;;
65656;SDS011;57397;50.096;14.404;2022-09-19T03:10:34;0.50;;;0.30;;
65656;SDS011;57397;50.096;14.404;2022-09-19T03:13:04;0.30;;;0.30;;
65656;SDS011;57397;50.096;14.404;2022-09-19T03:20:35;0.35;;;0.30;;
65656;SDS011;57397;50.096;14.404;2022-09-19T03:23:07;0.52;;;0.35;;
65656;SDS011;57397;50.096;14.404;2022-09-19T03:25:34;0.30;;;0.30;;
65656;SDS011;57397;50.096;14.404;2022-09-19T03:27:59;0.43;;;0.30;;
65656;SDS011;57397;50.096;14.404;2022-09-19T03:30:25;0.40;;;0.38;;
65656;SDS011;57397;50.096;14.404;2022-09-19T03:32:50;0.88;;;0.40;;
65656;SDS011;57397;50.096;14.404;2022-09-19T03:35:16;0.60;;;0.40;;
65656;SDS011;57397;50.096;14.404;2022-09-19T03:37:42;0.73;;;0.30;;
65656;SDS011;57397;50.096;14.404;2022-09-19T03:40:08;0.52;;;0.38;;
65656;SDS011;57397;50.096;14.404;2022-09-19T03:42:34;0.80;;;0.30;;
65656;SDS011;57397;50.096;14.404;2022-09-19T03:45:02;0.90;;;0.40;;
65656;SDS011;57397;50.096;14.404;2022-09-19T03:47:30;1.23;;;0.40;;
65656;SDS011;57397;50.096;14.404;2022-09-19T03:49:56;1.13;;;0.50;;
65656;SDS011;57397;50.096;14.404;2022-09-19T03:52:23;0.38;;;0.38;;
65656;SDS011;57397;50.096;14.404;2022-09-19T03:54:49;0.47;;;0.30;;
65656;SDS011;57397;50.096;14.404;2022-09-19T03:57:14;0.68;;;0.43;;
65656;SDS011;57397;50.096;14.404;2022-09-19T03:59:40;0.73;;;0.40;;
65656;SDS011;57397;50.096;14.404;2022-09-19T04:02:11;0.50;;;0.30;;
65656;SDS011;57397;50.096;14.404;2022-09-19T04:04:37;0.47;;;0.35;;
65656;SDS011;57397;50.096;14.404;2022-09-19T04:07:02;1.23;;;0.47;;
65656;SDS011;57397;50.096;14.404;2022-09-19T04:09:28;0.40;;;0.40;;
65656;SDS011;57397;50.096;14.404;2022-09-19T04:11:53;0.40;;;0.40;;
65656;SDS011;57397;50.096;14.404;2022-09-19T04:14:21;0.75;;;0.30;;
65656;SDS011;57397;50.096;14.404;2022-09-19T04:16:47;0.70;;;0.40;;
65656;SDS011;57397;50.096;14.404;2022-09-19T04:19:12;0.28;;;0.22;;
65656;SDS011;57397;50.096;14.404;2022-09-19T04:21:38;0.70;;;0.32;;
65656;SDS011;57397;50.096;14.404;2022-09-19T04:24:10;0.75;;;0.40;;
65656;SDS011;57397;50.096;14.404;2022-09-19T04:26:36;0.98;;;0.50;;
65656;SDS011;57397;50.096;14.404;2022-09-19T04:29:02;1.33;;;0.40;;
65656;SDS011;57397;50.096;14.404;2022-09-19T04:31:32;0.50;;;0.40;;
65656;SDS011;57397;50.096;14.404;2022-09-19T04:34:08;0.50;;;0.30;;
65656;SDS011;57397;50.096;14.404;2022-09-19T04:36:38;0.40;;;0.40;;
65656;SDS011;57397;50.096;14.404;2022-09-19T04:39:04;0.30;;;0.25;;
65656;SDS011;57397;50.096;14.404;2022-09-19T04:41:35;0.50;;;0.30;;
65656;SDS011;57397;50.096;14.404;2022-09-19T04:44:03;0.38;;;0.32;;
65656;SDS011;57397;50.096;14.404;2022-09-19T04:46:29;0.55;;;0.40;;
65656;SDS011;57397;50.096;14.404;2022-09-19T04:48:56;0.73;;;0.40;;
65656;SDS011;57397;50.096;14.404;2022-09-19T04:51:22;1.73;;;0.43;;
65656;SDS011;57397;50.096;14.404;2022-09-19T04:53:49;0.50;;;0.40;;
65656;SDS011;57397;50.096;14.404;2022-09-19T04:56:15;0.80;;;0.25;;
65656;SDS011;57397;50.096;14.404;2022-09-19T04:58:42;0.40;;;0.30;;
65656;SDS011;57397;50.096;14.404;2022-09-19T05:01:08;1.13;;;0.60;;
65656;SDS011;57397;50.096;14.404;2022-09-19T05:03:34;1.10;;;0.40;;
65656;SDS011;57397;50.096;14.404;2022-09-19T05:06:00;0.50;;;0.40;;
65656;SDS011;57397;50.096;14.404;2022-09-19T05:08:27;0.50;;;0.40;;
65656;SDS011;57397;50.096;14.404;2022-09-19T05:10:54;0.40;;;0.40;;
65656;SDS011;57397;50.096;14.404;2022-09-19T05:13:28;0.45;;;0.43;;
65656;SDS011;57397;50.096;14.404;2022-09-19T05:15:55;0.60;;;0.40;;
65656;SDS011;57397;50.096;14.404;2022-09-19T05:18:21;0.40;;;0.30;;
65656;SDS011;57397;50.096;14.404;2022-09-19T05:20:51;0.40;;;0.40;;
65656;SDS011;57397;50.096;14.404;2022-09-19T05:23:18;0.85;;;0.50;;
65656;SDS011;57397;50.096;14.404;2022-09-19T05:25:44;0.70;;;0.50;;
65656;SDS011;57397;50.096;14.404;2022-09-19T05:28:10;0.45;;;0.40;;
65656;SDS011;57397;50.096;14.404;2022-09-19T05:30:37;0.50;;;0.40;;
65656;SDS011;57397;50.096;14.404;2022-09-19T05:33:03;0.40;;;0.40;;
65656;SDS011;57397;50.096;14.404;2022-09-19T05:35:30;0.47;;;0.40;;
65656;SDS011;57397;50.096;14.404;2022-09-19T05:37:56;0.50;;;0.40;;
65656;SDS011;57397;50.096;14.404;2022-09-19T05:40:23;0.50;;;0.40;;
65656;SDS011;57397;50.096;14.404;2022-09-19T05:42:50;0.63;;;0.40;;
65656;SDS011;57397;50.096;14.404;2022-09-19T05:45:16;2.78;;;0.50;;
65656;SDS011;57397;50.096;14.404;2022-09-19T05:47:42;0.70;;;0.50;;
65656;SDS011;57397;50.096;14.404;2022-09-19T05:50:09;1.80;;;0.40;;
65656;SDS011;57397;50.096;14.404;2022-09-19T05:52:37;0.82;;;0.52;;
65656;SDS011;57397;50.096;14.404;2022-09-19T05:55:22;0.32;;;0.30;;
65656;SDS011;57397;50.096;14.404;2022-09-19T05:57:51;0.60;;;0.40;;
65656;SDS011;57397;50.096;14.404;2022-09-19T06:00:21;0.60;;;0.40;;
65656;SDS011;57397;50.096;14.404;2022-09-19T06:02:55;0.45;;;0.40;;
65656;SDS011;57397;50.096;14.404;2022-09-19T06:05:23;0.57;;;0.40;;
65656;SDS011;57397;50.096;14.404;2022-09-19T06:07:49;0.60;;;0.45;;
65656;SDS011;57397;50.096;14.404;2022-09-19T06:10:17;0.70;;;0.50;;
65656;SDS011;57397;50.096;14.404;2022-09-19T06:12:43;1.27;;;0.40;;
65656;SDS011;57397;50.096;14.404;2022-09-19T06:15:10;0.85;;;0.40;;
65656;SDS011;57397;50.096;14.404;2022-09-19T06:17:36;0.60;;;0.40;;
65656;SDS011;57397;50.096;14.404;2022-09-19T06:20:03;0.65;;;0.40;;
65656;SDS011;57397;50.096;14.404;2022-09-19T06:22:29;0.57;;;0.50;;
65656;SDS011;57397;50.096;14.404;2022-09-19T06:24:55;0.85;;;0.40;;
65656;SDS011;57397;50.096;14.404;2022-09-19T06:27:20;0.47;;;0.40;;
65656;SDS011;57397;50.096;14.404;2022-09-19T06:29:46;0.50;;;0.50;;
65656;SDS011;57397;50.096;14.404;2022-09-19T06:32:12;0.63;;;0.50;;
65656;SDS011;57397;50.096;14.404;2022-09-19T06:34:37;0.45;;;0.43;;
65656;SDS011;57397;50.096;14.404;2022-09-19T06:37:03;0.40;;;0.40;;
65656;SDS011;57397;50.096;14.404;2022-09-19T06:39:28;0.60;;;0.43;;
65656;SDS011;57397;50.096;14.404;2022-09-19T06:41:54;0.60;;;0.50;;
65656;SDS011;57397;50.096;14.404;2022-09-19T06:44:20;0.52;;;0.40;;
65656;SDS011;57397;50.096;14.404;2022-09-19T06:46:48;0.82;;;0.40;;
65656;SDS011;57397;50.096;14.404;2022-09-19T06:49:13;0.30;;;0.30;;
65656;SDS011;57397;50.096;14.404;2022-09-19T06:51:39;0.75;;;0.50;;
65656;SDS011;57397;50.096;14.404;2022-09-19T06:54:04;0.40;;;0.40;;
65656;SDS011;57397;50.096;14.404;2022-09-19T06:56:33;0.55;;;0.52;;
65656;SDS011;57397;50.096;14.404;2022-09-19T06:58:58;0.60;;;0.40;;
65656;SDS011;57397;50.096;14.404;2022-09-19T07:01:24;0.80;;;0.50;;
65656;SDS011;57397;50.096;14.404;2022-09-19T07:03:49;0.98;;;0.40;;
65656;SDS011;57397;50.096;14.404;2022-09-19T07:06:15;0.77;;;0.50;;
65656;SDS011;57397;50.096;14.404;2022-09-19T07:08:40;1.15;;;0.50;;
65656;SDS011;57397;50.096;14.404;2022-09-19T07:11:06;1.25;;;0.45;;
65656;SDS011;57397;50.096;14.404;2022-09-19T07:13:31;0.82;;;0.50;;
65656;SDS011;57397;50.096;14.404;2022-09-19T07:15:57;0.63;;;0.50;;
65656;SDS011;57397;50.096;14.404;2022-09-19T07:18:27;0.93;;;0.50;;
65656;SDS011;57397;50.096;14.404;2022-09-19T07:20:58;0.55;;;0.47;;
65656;SDS011;57397;50.096;14.404;2022-09-19T07:23:25;0.80;;;0.50;;
65656;SDS011;57397;50.096;14.404;2022-09-19T07:25:52;0.88;;;0.50;;
65656;SDS011;57397;50.096;14.404;2022-09-19T07:28:20;0.50;;;0.50;;
65656;SDS011;57397;50.096;14.404;2022-09-19T07:30:46;0.60;;;0.50;;
65656;SDS011;57397;50.096;14.404;2022-09-19T07:33:13;1.15;;;0.60;;
65656;SDS011;57397;50.096;14.404;2022-09-19T07:35:40;0.55;;;0.50;;
65656;SDS011;57397;50.096;14.404;2022-09-19T07:38:08;1.27;;;0.50;;
65656;SDS011;57397;50.096;14.404;2022-09-19T07:40:37;0.50;;;0.50;;
65656;SDS011;57397;50.096;14.404;2022-09-19T07:43:02;0.98;;;0.50;;
65656;SDS011;57397;50.096;14.404;2022-09-19T07:45:33;0.73;;;0.50;;
65656;SDS011;57397;50.096;14.404;2022-09-19T07:47:59;0.40;;;0.40;;
65656;SDS011;57397;50.096;14.404;2022-09-19T07:50:26;0.60;;;0.50;;
65656;SDS011;57397;50.096;14.404;2022-09-19T07:53:02;0.98;;;0.50;;
65656;SDS011;57397;50.096;14.404;2022-09-19T07:55:30;0.68;;;0.60;;
65656;SDS011;57397;50.096;14.404;2022-09-19T07:57:56;0.63;;;0.50;;
65656;SDS011;57397;50.096;14.404;2022-09-19T08:00:23;0.95;;;0.70;;
65656;SDS011;57397;50.096;14.404;2022-09-19T08:02:59;1.00;;;0.60;;
65656;SDS011;57397;50.096;14.404;2022-09-19T08:05:27;0.55;;;0.45;;
65656;SDS011;57397;50.096;14.404;2022-09-19T08:07:53;0.77;;;0.50;;
65656;SDS011;57397;50.096;14.404;2022-09-19T08:10:20;0.50;;;0.50;;
65656;SDS011;57397;50.096;14.404;2022-09-19T08:12:46;0.63;;;0.50;;
65656;SDS011;57397;50.096;14.404;2022-09-19T08:15:14;0.80;;;0.40;;
65656;SDS011;57397;50.096;14.404;2022-09-19T08:20:24;0.70;;;0.60;;
65656;SDS011;57397;50.096;14.404;2022-09-19T08:25:46;0.85;;;0.65;;
65656;SDS011;57397;50.096;14.404;2022-09-19T08:28:13;0.77;;;0.50;;
65656;SDS011;57397;50.096;14.404;2022-09-19T08:30:39;0.82;;;0.60;;
65656;SDS011;57397;50.096;14.404;2022-09-19T08:33:07;1.42;;;0.68;;
65656;SDS011;57397;50.096;14.404;2022-09-19T08:35:33;0.50;;;0.45;;
65656;SDS011;57397;50.096;14.404;2022-09-19T08:38:03;0.75;;;0.60;;
65656;SDS011;57397;50.096;14.404;2022-09-19T08:54:58;0.88;;;0.60;;
65656;SDS011;57397;50.096;14.404;2022-09-19T08:57:27;0.80;;;0.60;;
65656;SDS011;57397;50.096;14.404;2022-09-19T08:59:55;0.98;;;0.50;;
65656;SDS011;57397;50.096;14.404;2022-09-19T09:05:13;0.50;;;0.40;;
65656;SDS011;57397;50.096;14.404;2022-09-19T09:07:43;0.70;;;0.50;;
65656;SDS011;57397;50.096;14.404;2022-09-19T09:12:59;0.43;;;0.43;;
65656;SDS011;57397;50.096;14.404;2022-09-19T09:15:29;2.05;;;0.50;;
65656;SDS011;57397;50.096;14.404;2022-09-19T09:23:30;0.40;;;0.40;;
65656;SDS011;57397;50.096;14.404;2022-09-19T09:29:08;0.55;;;0.50;;
65656;SDS011;57397;50.096;14.404;2022-09-19T09:31:41;0.60;;;0.50;;
65656;SDS011;57397;50.096;14.404;2022-09-19T09:34:15;0.50;;;0.50;;
65656;SDS011;57397;50.096;14.404;2022-09-19T09:36:47;0.70;;;0.50;;
65656;SDS011;57397;50.096;14.404;2022-09-19T09:39:20;0.70;;;0.60;;
65656;SDS011;57397;50.096;14.404;2022-09-19T09:41:51;0.55;;;0.50;;
65656;SDS011;57397;50.096;14.404;2022-09-19T09:49:58;1.40;;;0.45;;
65656;SDS011;57397;50.096;14.404;2022-09-19T09:52:46;0.40;;;0.40;;
65656;SDS011;57397;50.096;14.404;2022-09-19T10:01:58;0.40;;;0.40;;
65656;SDS011;57397;50.096;14.404;2022-09-19T10:07:19;0.75;;;0.45;;
65656;SDS011;57397;50.096;14.404;2022-09-19T10:10:14;1.38;;;0.40;;
65656;SDS011;57397;50.096;14.404;2022-09-19T10:12:44;0.68;;;0.50;;
65656;SDS011;57397;50.096;14.404;2022-09-19T10:15:33;0.50;;;0.40;;
65656;SDS011;57397;50.096;14.404;2022-09-19T10:18:02;0.70;;;0.60;;
65656;SDS011;57397;50.096;14.404;2022-09-19T10:20:36;0.47;;;0.47;;
65656;SDS011;57397;50.096;14.404;2022-09-19T10:23:04;0.50;;;0.45;;
65656;SDS011;57397;50.096;14.404;2022-09-19T10:25:35;0.50;;;0.40;;
65656;SDS011;57397;50.096;14.404;2022-09-19T10:28:20;0.57;;;0.47;;
65656;SDS011;57397;50.096;14.404;2022-09-19T10:30:53;0.60;;;0.50;;
65656;SDS011;57397;50.096;14.404;2022-09-19T10:35:51;0.75;;;0.60;;
65656;SDS011;57397;50.096;14.404;2022-09-19T10:38:20;0.65;;;0.45;;
65656;SDS011;57397;50.096;14.404;2022-09-19T10:43:21;0.60;;;0.50;;
65656;SDS011;57397;50.096;14.404;2022-09-19T10:45:48;0.50;;;0.40;;
65656;SDS011;57397;50.096;14.404;2022-09-19T10:48:21;0.50;;;0.50;;
65656;SDS011;57397;50.096;14.404;2022-09-19T10:50:51;0.60;;;0.50;;
65656;SDS011;57397;50.096;14.404;2022-09-19T10:53:21;0.77;;;0.50;;
65656;SDS011;57397;50.096;14.404;2022-09-19T10:55:54;0.80;;;0.52;;
65656;SDS011;57397;50.096;14.404;2022-09-19T10:58:24;0.47;;;0.40;;
65656;SDS011;57397;50.096;14.404;2022-09-19T11:00:53;1.35;;;0.50;;
65656;SDS011;57397;50.096;14.404;2022-09-19T11:03:30;0.77;;;0.50;;
65656;SDS011;57397;50.096;14.404;2022-09-19T11:08:42;0.80;;;0.60;;
65656;SDS011;57397;50.096;14.404;2022-09-19T11:11:43;0.32;;;0.32;;
65656;SDS011;57397;50.096;14.404;2022-09-19T11:14:21;0.50;;;0.50;;
65656;SDS011;57397;50.096;14.404;2022-09-19T11:25:00;0.68;;;0.50;;
65656;SDS011;57397;50.096;14.404;2022-09-19T11:27:34;0.40;;;0.40;;
65656;SDS011;57397;50.096;14.404;2022-09-19T11:30:16;1.65;;;0.50;;
65656;SDS011;57397;50.096;14.404;2022-09-19T11:35:55;1.38;;;0.40;;
65656;SDS011;57397;50.096;14.404;2022-09-19T11:38:42;0.75;;;0.50;;
65656;SDS011;57397;50.096;14.404;2022-09-19T11:41:36;0.85;;;0.50;;
65656;SDS011;57397;50.096;14.404;2022-09-19T11:59:00;0.40;;;0.40;;
65656;SDS011;57397;50.096;14.404;2022-09-19T12:01:24;0.65;;;0.50;;
65656;SDS011;57397;50.096;14.404;2022-09-19T12:09:40;1.00;;;0.60;;
65656;SDS011;57397;50.096;14.404;2022-09-19T12:14:37;1.45;;;0.80;;
65656;SDS011;57397;50.096;14.404;2022-09-19T12:17:23;1.23;;;0.80;;
65656;SDS011;57397;50.096;14.404;2022-09-19T12:20:00;1.17;;;0.90;;
65656;SDS011;57397;50.096;14.404;2022-09-19T12:22:51;2.25;;;0.93;;
65656;SDS011;57397;50.096;14.404;2022-09-19T12:25:20;1.33;;;0.80;;
65656;SDS011;57397;50.096;14.404;2022-09-19T12:27:59;1.40;;;0.90;;
65656;SDS011;57397;50.096;14.404;2022-09-19T12:30:28;1.17;;;0.70;;
65656;SDS011;57397;50.096;14.404;2022-09-19T12:35:33;0.88;;;0.60;;
65656;SDS011;57397;50.096;14.404;2022-09-19T12:40:38;1.25;;;0.82;;
65656;SDS011;57397;50.096;14.404;2022-09-19T12:45:55;0.90;;;0.70;;
65656;SDS011;57397;50.096;14.404;2022-09-19T12:51:13;0.90;;;0.68;;
65656;SDS011;57397;50.096;14.404;2022-09-19T12:53:43;0.75;;;0.70;;
65656;SDS011;57397;50.096;14.404;2022-09-19T12:56:13;1.17;;;0.60;;
65656;SDS011;57397;50.096;14.404;2022-09-19T13:01:28;1.00;;;0.70;;
65656;SDS011;57397;50.096;14.404;2022-09-19T13:04:22;0.90;;;0.70;;
65656;SDS011;57397;50.096;14.404;2022-09-19T13:07:01;0.82;;;0.63;;
65656;SDS011;57397;50.096;14.404;2022-09-19T13:09:53;0.90;;;0.60;;
65656;SDS011;57397;50.096;14.404;2022-09-19T13:18:05;0.50;;;0.50;;
65656;SDS011;57397;50.096;14.404;2022-09-19T13:20:49;0.60;;;0.52;;
65656;SDS011;57397;50.096;14.404;2022-09-19T13:23:35;1.25;;;0.65;;
65656;SDS011;57397;50.096;14.404;2022-09-19T13:28:51;1.00;;;0.65;;
65656;SDS011;57397;50.096;14.404;2022-09-19T13:31:22;1.05;;;0.63;;
65656;SDS011;57397;50.096;14.404;2022-09-19T13:33:56;1.33;;;0.50;;
65656;SDS011;57397;50.096;14.404;2022-09-19T13:38:54;0.60;;;0.50;;
65656;SDS011;57397;50.096;14.404;2022-09-19T13:49:48;0.90;;;0.68;;
65656;SDS011;57397;50.096;14.404;2022-09-19T13:52:29;0.95;;;0.70;;
65656;SDS011;57397;50.096;14.404;2022-09-19T13:57:38;0.73;;;0.52;;
65656;SDS011;57397;50.096;14.404;2022-09-19T14:00:11;1.05;;;0.68;;
65656;SDS011;57397;50.096;14.404;2022-09-19T14:05:45;1.85;;;0.90;;
65656;SDS011;57397;50.096;14.404;2022-09-19T14:08:25;2.08;;;0.88;;
65656;SDS011;57397;50.096;14.404;2022-09-19T14:10:56;2.60;;;0.90;;
65656;SDS011;57397;50.096;14.404;2022-09-19T14:18:43;1.27;;;0.77;;
65656;SDS011;57397;50.096;14.404;2022-09-19T14:24:11;1.52;;;0.80;;
65656;SDS011;57397;50.096;14.404;2022-09-19T14:29:25;1.40;;;0.60;;
65656;SDS011;57397;50.096;14.404;2022-09-19T14:35:20;0.85;;;0.70;;
65656;SDS011;57397;50.096;14.404;2022-09-19T14:41:01;1.67;;;0.77;;
65656;SDS011;57397;50.096;14.404;2022-09-19T14:56:39;4.07;;;1.67;;
65656;SDS011;57397;50.096;14.404;2022-09-19T14:59:15;2.95;;;1.70;;
65656;SDS011;57397;50.096;14.404;2022-09-19T15:01:42;2.83;;;1.50;;
65656;SDS011;57397;50.096;14.404;2022-09-19T15:06:43;4.55;;;2.38;;
65656;SDS011;57397;50.096;14.404;2022-09-19T15:09:25;3.20;;;2.28;;
65656;SDS011;57397;50.096;14.404;2022-09-19T15:11:52;3.33;;;1.95;;
65656;SDS011;57397;50.096;14.404;2022-09-19T15:14:22;3.22;;;2.10;;
65656;SDS011;57397;50.096;14.404;2022-09-19T15:16:50;3.08;;;2.13;;
65656;SDS011;57397;50.096;14.404;2022-09-19T15:19:45;2.75;;;1.88;;
65656;SDS011;57397;50.096;14.404;2022-09-19T15:22:21;5.18;;;2.25;;
65656;SDS011;57397;50.096;14.404;2022-09-19T15:24:49;2.78;;;1.77;;
65656;SDS011;57397;50.096;14.404;2022-09-19T15:27:18;3.55;;;1.63;;
65656;SDS011;57397;50.096;14.404;2022-09-19T15:29:45;2.22;;;1.52;;
65656;SDS011;57397;50.096;14.404;2022-09-19T15:34:41;2.42;;;1.60;;
65656;SDS011;57397;50.096;14.404;2022-09-19T15:37:15;3.00;;;1.70;;
65656;SDS011;57397;50.096;14.404;2022-09-19T15:39:41;2.22;;;1.40;;
65656;SDS011;57397;50.096;14.404;2022-09-19T15:42:07;1.80;;;1.27;;
65656;SDS011;57397;50.096;14.404;2022-09-19T15:44:36;1.55;;;1.00;;
65656;SDS011;57397;50.096;14.404;2022-09-19T15:47:05;2.58;;;1.38;;
65656;SDS011;57397;50.096;14.404;2022-09-19T15:49:38;3.08;;;1.27;;
65656;SDS011;57397;50.096;14.404;2022-09-19T15:52:08;2.80;;;1.67;;
65656;SDS011;57397;50.096;14.404;2022-09-19T15:54:36;3.20;;;1.70;;
65656;SDS011;57397;50.096;14.404;2022-09-19T15:59:49;3.05;;;1.48;;
65656;SDS011;57397;50.096;14.404;2022-09-19T16:02:16;2.25;;;1.52;;
65656;SDS011;57397;50.096;14.404;2022-09-19T16:04:43;2.85;;;1.60;;
65656;SDS011;57397;50.096;14.404;2022-09-19T16:07:22;1.92;;;1.35;;
65656;SDS011;57397;50.096;14.404;2022-09-19T16:10:17;2.00;;;1.30;;
65656;SDS011;57397;50.096;14.404;2022-09-19T16:12:48;2.85;;;1.48;;
65656;SDS011;57397;50.096;14.404;2022-09-19T16:28:16;1.55;;;1.10;;
65656;SDS011;57397;50.096;14.404;2022-09-19T16:33:41;1.77;;;1.38;;
65656;SDS011;57397;50.096;14.404;2022-09-19T16:36:11;2.05;;;1.48;;
65656;SDS011;57397;50.096;14.404;2022-09-19T16:38:38;2.63;;;1.10;;
65656;SDS011;57397;50.096;14.404;2022-09-19T16:41:06;1.40;;;1.02;;
65656;SDS011;57397;50.096;14.404;2022-09-19T16:43:33;2.50;;;1.27;;
65656;SDS011;57397;50.096;14.404;2022-09-19T16:46:07;1.83;;;1.30;;
65656;SDS011;57397;50.096;14.404;2022-09-19T16:48:34;3.10;;;1.33;;
65656;SDS011;57397;50.096;14.404;2022-09-19T16:50:59;2.55;;;1.30;;
65656;SDS011;57397;50.096;14.404;2022-09-19T16:53:27;3.72;;;1.67;;
65656;SDS011;57397;50.096;14.404;2022-09-19T16:55:52;1.98;;;1.30;;
65656;SDS011;57397;50.096;14.404;2022-09-19T16:58:18;2.10;;;1.10;;
65656;SDS011;57397;50.096;14.404;2022-09-19T17:00:44;2.05;;;1.17;;
65656;SDS011;57397;50.096;14.404;2022-09-19T17:03:10;2.85;;;1.38;;
65656;SDS011;57397;50.096;14.404;2022-09-19T17:05:42;2.10;;;1.40;;
65656;SDS011;57397;50.096;14.404;2022-09-19T17:08:08;2.50;;;1.30;;
65656;SDS011;57397;50.096;14.404;2022-09-19T17:10:34;1.98;;;1.30;;
65656;SDS011;57397;50.096;14.404;2022-09-19T17:12:59;2.20;;;1.40;;
65656;SDS011;57397;50.096;14.404;2022-09-19T17:18:11;2.42;;;1.35;;
65656;SDS011;57397;50.096;14.404;2022-09-19T17:20:40;2.03;;;1.30;;
65656;SDS011;57397;50.096;14.404;2022-09-19T17:23:06;1.98;;;1.52;;
65656;SDS011;57397;50.096;14.404;2022-09-19T17:25:45;2.40;;;1.60;;
65656;SDS011;57397;50.096;14.404;2022-09-19T17:28:13;2.47;;;1.50;;
65656;SDS011;57397;50.096;14.404;2022-09-19T17:30:42;2.72;;;1.67;;
65656;SDS011;57397;50.096;14.404;2022-09-19T17:33:16;2.95;;;1.55;;
65656;SDS011;57397;50.096;14.404;2022-09-19T17:35:44;2.38;;;1.50;;
65656;SDS011;57397;50.096;14.404;2022-09-19T17:38:10;2.70;;;1.60;;
65656;SDS011;57397;50.096;14.404;2022-09-19T17:40:40;2.28;;;1.52;;
65656;SDS011;57397;50.096;14.404;2022-09-19T17:43:09;3.13;;;1.98;;
65656;SDS011;57397;50.096;14.404;2022-09-19T17:45:40;4.55;;;2.13;;
65656;SDS011;57397;50.096;14.404;2022-09-19T17:48:07;3.42;;;1.95;;
65656;SDS011;57397;50.096;14.404;2022-09-19T17:50:34;3.72;;;2.03;;
65656;SDS011;57397;50.096;14.404;2022-09-19T17:53:00;3.45;;;2.08;;
65656;SDS011;57397;50.096;14.404;2022-09-19T17:55:26;4.57;;;2.55;;
65656;SDS011;57397;50.096;14.404;2022-09-19T17:57:51;4.10;;;2.40;;
65656;SDS011;57397;50.096;14.404;2022-09-19T18:00:18;3.75;;;2.50;;
65656;SDS011;57397;50.096;14.404;2022-09-19T18:02:44;3.22;;;2.30;;
65656;SDS011;57397;50.096;14.404;2022-09-19T18:05:28;3.90;;;2.40;;
65656;SDS011;57397;50.096;14.404;2022-09-19T18:07:59;3.45;;;2.40;;
65656;SDS011;57397;50.096;14.404;2022-09-19T18:10:27;5.05;;;2.72;;
65656;SDS011;57397;50.096;14.404;2022-09-19T18:12:54;5.65;;;2.67;;
65656;SDS011;57397;50.096;14.404;2022-09-19T18:15:24;4.20;;;2.50;;
65656;SDS011;57397;50.096;14.404;2022-09-19T18:17:53;3.38;;;2.50;;
65656;SDS011;57397;50.096;14.404;2022-09-19T18:20:19;4.72;;;3.08;;
65656;SDS011;57397;50.096;14.404;2022-09-19T18:22:45;4.28;;;2.40;;
65656;SDS011;57397;50.096;14.404;2022-09-19T18:25:10;3.30;;;2.42;;
65656;SDS011;57397;50.096;14.404;2022-09-19T18:27:41;3.38;;;2.42;;
65656;SDS011;57397;50.096;14.404;2022-09-19T18:30:09;4.72;;;2.20;;
65656;SDS011;57397;50.096;14.404;2022-09-19T18:32:40;3.80;;;2.42;;
65656;SDS011;57397;50.096;14.404;2022-09-19T18:35:07;4.00;;;2.70;;
65656;SDS011;57397;50.096;14.404;2022-09-19T18:37:35;3.75;;;2.45;;
65656;SDS011;57397;50.096;14.404;2022-09-19T18:40:02;3.30;;;2.00;;
65656;SDS011;57397;50.096;14.404;2022-09-19T18:42:27;2.95;;;2.40;;
65656;SDS011;57397;50.096;14.404;2022-09-19T18:44:55;4.05;;;2.38;;